createdAt,value
2019-01-05T00:00:10.804Z,7.50
2019-01-05T00:02:58.772Z,7.46
2019-01-05T00:05:46.782Z,7.49
2019-01-05T00:08:53.812Z,7.40
2019-01-05T00:11:41.773Z,7.41
2019-01-05T00:14:48.761Z,7.44
2019-01-05T00:20:53.139Z,7.49
2019-01-05T00:24:01.594Z,7.53
2019-01-05T00:27:08.639Z,7.59
2019-01-05T00:30:17.126Z,7.58
2019-01-05T00:33:25.824Z,7.61
2019-01-05T00:39:24.323Z,7.63
2019-01-05T00:51:40.581Z,7.61
2019-01-05T01:03:27.095Z,7.58
2019-01-05T01:06:35.572Z,7.60
2019-01-05T01:09:44.063Z,7.68
2019-01-05T01:15:27.171Z,7.53
2019-01-05T01:18:35.630Z,7.52
2019-01-05T01:21:44.134Z,7.61
2019-01-05T01:24:52.971Z,7.55
2019-01-05T01:28:01.434Z,7.56
2019-01-05T01:30:49.449Z,7.61
2019-01-05T01:33:56.489Z,7.57
2019-01-05T01:36:44.512Z,7.60
2019-01-05T01:39:54.092Z,7.59
2019-01-05T01:45:57.576Z,7.53
2019-01-05T01:48:45.560Z,7.56
2019-01-05T01:51:54.058Z,7.57
2019-01-05T01:55:02.561Z,7.53
2019-01-05T01:58:11.023Z,7.55
2019-01-05T02:04:14.741Z,7.57
2019-01-05T02:07:23.234Z,7.60
2019-01-05T02:10:31.727Z,7.62
2019-01-05T02:13:41.774Z,7.64
2019-01-05T02:16:53.113Z,7.53
2019-01-05T02:20:19.248Z,7.62
2019-01-05T02:23:45.424Z,7.49
2019-01-05T02:26:57.785Z,7.48
2019-01-05T02:30:19.407Z,7.45
2019-01-05T02:33:29.466Z,7.42
2019-01-05T02:36:55.628Z,7.44
2019-01-05T02:40:21.956Z,7.38
2019-01-05T02:43:48.385Z,7.38
2019-01-05T02:47:14.482Z,7.43
2019-01-05T02:50:40.610Z,7.38
2019-01-05T02:53:55.668Z,7.39
2019-01-05T02:57:21.864Z,7.33
2019-01-05T03:00:47.950Z,7.34
2019-01-05T03:04:14.097Z,7.43
2019-01-05T03:07:30.239Z,7.47
2019-01-05T03:10:56.379Z,7.54
2019-01-05T03:14:22.512Z,7.52
2019-01-05T03:21:07.901Z,7.62
2019-01-05T03:27:40.687Z,7.54
2019-01-05T03:31:07.088Z,7.66
2019-01-05T03:34:22.693Z,7.60
2019-01-05T03:37:48.785Z,7.68
2019-01-05T03:41:04.287Z,7.70
2019-01-05T03:47:52.691Z,7.75
2019-01-05T03:51:13.865Z,7.79
2019-01-05T03:54:32.220Z,7.82
2019-01-05T03:57:53.137Z,7.83
2019-01-05T04:01:19.283Z,7.84
2019-01-05T04:04:45.376Z,7.81
2019-01-05T04:08:04.101Z,7.85
2019-01-05T04:11:30.248Z,7.88
2019-01-05T04:14:56.351Z,7.91
2019-01-05T04:18:22.491Z,7.88
2019-01-05T04:21:48.645Z,7.90
2019-01-05T04:25:14.776Z,7.95
2019-01-05T04:28:29.609Z,7.95
2019-01-05T04:31:55.729Z,8.01
2019-01-05T04:35:18.104Z,8.01
2019-01-05T04:38:44.261Z,8.06
2019-01-05T04:42:10.399Z,8.03
2019-01-05T04:45:36.517Z,8.08
2019-01-05T04:49:02.644Z,8.12
2019-01-05T04:52:28.773Z,8.19
2019-01-05T04:55:54.880Z,8.20
2019-01-05T04:59:11.464Z,8.27
2019-01-05T05:02:37.593Z,8.26
2019-01-05T05:06:03.722Z,8.28
2019-01-05T05:09:28.126Z,8.26
2019-01-05T05:12:46.223Z,8.26
2019-01-05T05:16:12.319Z,8.26
2019-01-05T05:19:38.456Z,8.26
2019-01-05T05:23:04.621Z,8.25
2019-01-05T05:26:30.753Z,8.26
2019-01-05T05:29:56.880Z,8.19
2019-01-05T05:33:23.023Z,8.19
2019-01-05T05:36:43.470Z,8.19
2019-01-05T05:40:09.634Z,8.26
2019-01-05T05:43:35.772Z,8.28
2019-01-05T05:47:01.901Z,8.30
2019-01-05T05:50:28.101Z,8.32
2019-01-05T05:53:54.241Z,8.33
2019-01-05T05:57:20.364Z,8.38
2019-01-05T06:00:46.499Z,8.37
2019-01-05T06:04:12.586Z,8.37
2019-01-05T06:07:38.718Z,8.36
2019-01-05T06:11:04.867Z,8.36
2019-01-05T06:14:30.965Z,8.38
2019-01-05T06:17:57.107Z,8.39
2019-01-05T06:21:23.195Z,8.40
2019-01-05T06:24:52.128Z,8.37
2019-01-05T06:28:18.314Z,8.45
2019-01-05T06:31:44.451Z,8.44
2019-01-05T06:35:10.548Z,8.44
2019-01-05T06:38:36.678Z,8.39
2019-01-05T06:42:02.720Z,8.40
2019-01-05T06:45:15.889Z,8.39
2019-01-05T06:48:41.984Z,8.41
2019-01-05T06:52:08.107Z,8.33
2019-01-05T06:55:34.269Z,8.37
2019-01-05T06:59:00.434Z,8.35
2019-01-05T07:02:29.331Z,8.28
2019-01-05T07:05:55.505Z,8.37
2019-01-05T07:09:21.597Z,8.35
2019-01-05T07:12:47.727Z,8.25
2019-01-05T07:16:11.754Z,8.26
2019-01-05T07:19:37.889Z,8.18
2019-01-05T07:23:03.984Z,8.11
2019-01-05T07:26:30.126Z,8.03
2019-01-05T07:29:56.043Z,7.93
2019-01-05T07:33:22.186Z,7.91
2019-01-05T07:36:37.188Z,7.86
2019-01-05T07:40:03.318Z,7.86
2019-01-05T07:46:50.008Z,7.86
2019-01-05T07:50:16.130Z,7.83
2019-01-05T07:53:39.436Z,7.90
2019-01-05T07:56:59.899Z,7.95
2019-01-05T08:00:26.028Z,8.01
2019-01-05T08:03:52.165Z,8.04
2019-01-05T08:07:18.294Z,8.03
2019-01-05T08:10:44.440Z,8.08
2019-01-05T08:14:10.583Z,7.98
2019-01-05T08:17:36.675Z,7.96
2019-01-05T08:21:02.814Z,7.89
2019-01-05T08:24:20.324Z,7.84
2019-01-05T08:27:44.971Z,7.82
2019-01-05T08:31:07.903Z,7.95
2019-01-05T08:34:34.047Z,8.05
2019-01-05T08:38:00.177Z,8.17
2019-01-05T08:41:26.325Z,8.27
2019-01-05T08:44:52.416Z,8.28
2019-01-05T08:48:18.557Z,8.43
2019-01-05T08:51:44.646Z,8.48
2019-01-05T08:55:10.794Z,8.52
2019-01-05T08:58:36.886Z,8.48
2019-01-05T09:02:02.868Z,8.57
2019-01-05T09:05:29.015Z,8.63
2019-01-05T09:08:55.162Z,8.69
2019-01-05T09:12:21.294Z,8.70
2019-01-05T09:15:47.445Z,8.79
2019-01-05T09:19:13.539Z,8.83
2019-01-05T09:22:28.240Z,8.84
2019-01-05T09:25:54.363Z,8.87
2019-01-05T09:29:23.285Z,8.94
2019-01-05T09:32:49.418Z,8.99
2019-01-05T09:36:04.638Z,9.03
2019-01-05T09:39:27.363Z,9.04
2019-01-05T09:42:56.315Z,9.04
2019-01-05T09:46:22.363Z,9.13
2019-01-05T09:49:48.500Z,9.14
2019-01-05T09:53:09.360Z,9.27
2019-01-05T09:56:35.501Z,9.26
2019-01-05T10:00:01.645Z,9.38
2019-01-05T10:07:03.315Z,9.63
2019-01-05T10:10:25.537Z,9.65
2019-01-05T10:13:51.630Z,9.71
2019-01-05T10:17:06.387Z,9.69
2019-01-05T10:20:32.479Z,9.67
2019-01-05T10:23:58.794Z,9.62
2019-01-05T10:27:24.885Z,9.59
2019-01-05T10:30:51.024Z,9.64
2019-01-05T10:34:17.163Z,9.59
2019-01-05T10:37:43.303Z,9.72
2019-01-05T10:41:09.395Z,9.71
2019-01-05T10:44:35.525Z,9.73
2019-01-05T10:51:26.160Z,9.75
2019-01-05T10:54:52.296Z,9.87
2019-01-05T11:01:40.159Z,9.88
2019-01-05T11:05:06.288Z,10.13
2019-01-05T11:08:32.432Z,10.38
2019-01-05T11:11:58.566Z,10.31
2019-01-05T11:15:23.525Z,10.47
2019-01-05T11:18:49.666Z,10.64
2019-01-05T11:22:15.804Z,11.01
2019-01-05T11:29:02.068Z,11.00
2019-01-05T11:32:28.195Z,10.67
2019-01-05T11:35:54.353Z,10.50
2019-01-05T11:39:20.440Z,10.32
2019-01-05T11:42:46.589Z,10.31
2019-01-05T11:46:12.752Z,10.37
2019-01-05T11:49:38.889Z,10.57
2019-01-05T11:53:05.056Z,10.48
2019-01-05T11:56:31.211Z,10.23
2019-01-05T12:03:32.605Z,10.32
2019-01-05T12:06:58.683Z,9.94
2019-01-05T12:13:45.470Z,9.94
2019-01-05T12:20:45.407Z,10.16
2019-01-05T12:24:11.556Z,10.27
2019-01-05T12:27:37.799Z,9.96
2019-01-05T12:31:04.025Z,9.87
2019-01-05T12:34:30.203Z,9.55
2019-01-05T12:37:56.325Z,9.40
2019-01-05T12:41:22.486Z,9.23
2019-01-05T12:44:48.576Z,9.20
2019-01-05T12:48:17.490Z,9.26
2019-01-05T12:55:27.535Z,9.43
2019-01-05T12:58:53.635Z,9.54
2019-01-05T13:02:19.775Z,9.42
2019-01-05T13:05:45.867Z,9.55
2019-01-05T13:09:13.964Z,9.67
2019-01-05T13:12:40.058Z,9.64
2019-01-05T13:19:29.397Z,9.46
2019-01-05T13:22:58.330Z,9.39
2019-01-05T13:26:24.732Z,9.32
2019-01-05T13:29:50.930Z,9.26
2019-01-05T13:33:17.000Z,9.31
2019-01-05T13:36:34.283Z,9.27
2019-01-05T13:40:00.390Z,9.18
2019-01-05T13:43:19.409Z,9.07
2019-01-05T13:46:45.593Z,9.06
2019-01-05T13:50:11.684Z,9.12
2019-01-05T13:53:26.279Z,9.18
2019-01-05T13:56:35.805Z,9.39
2019-01-05T13:59:42.837Z,9.39
2019-01-05T14:02:49.861Z,9.50
2019-01-05T14:05:37.695Z,9.61
2019-01-05T14:08:44.737Z,9.64
2019-01-05T14:11:51.757Z,9.38
2019-01-05T14:14:58.798Z,9.45
2019-01-05T14:18:05.820Z,9.55
2019-01-05T14:21:12.855Z,9.54
2019-01-05T14:24:00.709Z,9.41
2019-01-05T14:30:01.457Z,9.55
2019-01-05T14:32:49.330Z,9.60
2019-01-05T14:35:56.317Z,9.55
2019-01-05T14:38:44.342Z,9.49
2019-01-05T14:41:47.421Z,9.47
2019-01-05T14:44:54.441Z,9.23
2019-01-05T14:47:42.405Z,9.15
2019-01-05T14:53:46.467Z,8.93
2019-01-05T14:56:34.643Z,8.84
2019-01-05T14:59:42.025Z,8.74
2019-01-05T15:02:49.112Z,8.71
2019-01-05T15:05:56.195Z,8.66
2019-01-05T15:09:03.224Z,8.56
2019-01-05T15:11:51.083Z,8.49
2019-01-05T15:14:38.978Z,8.47
2019-01-05T15:17:26.919Z,8.38
2019-01-05T15:20:14.869Z,8.31
2019-01-05T15:23:02.822Z,8.26
2019-01-05T15:26:09.841Z,8.20
2019-01-05T15:29:16.825Z,8.15
2019-01-05T15:32:04.687Z,8.14
2019-01-05T15:35:11.669Z,8.14
2019-01-05T15:37:59.638Z,8.13
2019-01-05T15:40:47.497Z,8.11
2019-01-05T15:43:54.544Z,8.11
2019-01-05T15:47:01.460Z,8.10
2019-01-05T15:50:08.501Z,8.11
2019-01-05T15:52:56.404Z,8.12
2019-01-05T15:56:03.521Z,8.18
2019-01-05T15:59:10.557Z,8.22
2019-01-05T16:02:17.596Z,8.25
2019-01-05T16:05:24.590Z,8.23
2019-01-05T16:08:31.627Z,8.20
2019-01-05T16:11:19.515Z,8.16
2019-01-05T16:14:07.462Z,8.12
2019-01-05T16:17:14.495Z,8.06
2019-01-05T16:20:02.449Z,8.06
2019-01-05T16:23:09.471Z,8.08
2019-01-05T16:26:16.528Z,8.05
2019-01-05T16:29:23.516Z,8.01
2019-01-05T16:35:25.603Z,7.89
2019-01-05T16:38:32.587Z,7.84
2019-01-05T16:41:35.498Z,7.82
2019-01-05T16:44:42.581Z,7.78
2019-01-05T16:47:30.629Z,7.76
2019-01-05T16:50:18.949Z,7.74
2019-01-05T16:53:07.151Z,7.73
2019-01-05T16:55:55.080Z,7.71
2019-01-05T16:58:43.136Z,7.67
2019-01-05T17:01:50.179Z,7.62
2019-01-05T17:04:38.040Z,7.58
2019-01-05T17:07:26.012Z,7.50
2019-01-05T17:10:33.033Z,7.46
2019-01-05T17:13:40.425Z,7.40
2019-01-05T17:16:47.505Z,7.30
2019-01-05T17:19:54.510Z,7.23
2019-01-05T17:23:03.066Z,7.14
2019-01-05T17:26:10.063Z,7.09
2019-01-05T17:29:17.288Z,7.05
2019-01-05T17:32:05.499Z,7.02
2019-01-05T17:34:53.354Z,7.00
2019-01-05T17:37:41.189Z,7.00
2019-01-05T17:40:48.220Z,6.99
2019-01-05T17:43:55.314Z,6.99
2019-01-05T17:46:43.247Z,7.01
2019-01-05T17:49:50.217Z,7.03
2019-01-05T17:52:38.109Z,7.07
2019-01-05T17:55:45.234Z,7.11
2019-01-05T17:58:53.463Z,7.12
2019-01-05T18:02:02.522Z,7.13
2019-01-05T18:05:09.706Z,7.11
2019-01-05T18:11:21.066Z,7.06
2019-01-05T18:14:09.070Z,7.05
2019-01-05T18:16:57.062Z,7.01
2019-01-05T18:20:04.085Z,6.96
2019-01-05T18:22:52.038Z,6.93
2019-01-05T18:25:59.006Z,6.91
2019-01-05T18:29:06.359Z,6.90
2019-01-05T18:32:13.330Z,6.87
2019-01-05T18:35:20.454Z,6.85
2019-01-05T18:38:08.475Z,6.81
2019-01-05T18:40:56.383Z,6.80
2019-01-05T18:44:03.375Z,6.78
2019-01-05T18:47:10.465Z,6.77
2019-01-05T18:50:17.481Z,6.75
2019-01-05T18:53:24.482Z,6.73
2019-01-05T18:56:31.638Z,6.76
2019-01-05T18:59:38.612Z,6.74
2019-01-05T19:02:26.609Z,6.74
2019-01-05T19:05:14.584Z,6.71
2019-01-05T19:08:21.625Z,6.69
2019-01-05T19:11:28.695Z,6.65
2019-01-05T19:14:16.613Z,6.64
2019-01-05T19:17:24.057Z,6.61
2019-01-05T19:20:31.050Z,6.55
2019-01-05T19:23:19.027Z,6.53
2019-01-05T19:26:26.008Z,6.53
2019-01-05T19:29:25.620Z,6.52
2019-01-05T19:32:32.861Z,6.52
2019-01-05T19:35:39.958Z,6.49
2019-01-05T19:38:27.819Z,6.47
2019-01-05T19:41:15.742Z,6.45
2019-01-05T19:44:03.666Z,6.42
2019-01-05T19:47:10.651Z,6.38
2019-01-05T19:50:17.688Z,6.33
2019-01-05T19:53:24.694Z,6.31
2019-01-05T19:56:31.715Z,6.23
2019-01-05T19:59:19.970Z,6.15
2019-01-05T20:02:27.011Z,6.04
2019-01-05T20:05:33.996Z,5.97
2019-01-05T20:08:21.850Z,5.84
2019-01-05T20:11:09.687Z,5.71
2019-01-05T20:14:16.703Z,5.57
2019-01-05T20:17:04.563Z,5.47
2019-01-05T20:20:11.566Z,5.36
2019-01-05T20:23:18.862Z,5.30
2019-01-05T20:26:25.882Z,5.19
2019-01-05T20:35:22.792Z,4.88
2019-01-05T20:38:10.777Z,4.81
2019-01-05T20:40:58.699Z,4.71
2019-01-05T20:44:05.726Z,4.64
2019-01-05T20:47:12.784Z,4.57
2019-01-05T20:50:00.900Z,4.48
2019-01-05T20:53:06.609Z,4.41
2019-01-05T20:56:14.562Z,4.34
2019-01-05T20:59:24.814Z,4.26
2019-01-05T21:02:25.411Z,4.18
2019-01-05T21:05:15.030Z,4.07
2019-01-05T21:08:25.344Z,4.00
2019-01-05T21:11:13.541Z,3.94
2019-01-05T21:16:57.486Z,3.83
2019-01-05T21:20:04.525Z,3.78
2019-01-05T21:23:23.009Z,3.73
2019-01-05T21:26:36.626Z,3.67
2019-01-05T21:29:45.449Z,3.62
2019-01-05T21:32:52.457Z,3.57
2019-01-05T21:35:40.426Z,3.51
2019-01-05T21:38:47.473Z,3.42
2019-01-05T21:41:54.552Z,3.37
2019-01-05T21:45:01.686Z,3.34
2019-01-05T21:50:59.486Z,3.23
2019-01-05T21:54:07.990Z,3.16
2019-01-05T21:56:55.999Z,3.08
2019-01-05T21:59:43.929Z,2.97
2019-01-05T22:02:31.851Z,2.91
2019-01-05T22:08:33.855Z,2.83
2019-01-05T22:11:40.846Z,2.79
2019-01-05T22:14:47.879Z,2.75
2019-01-05T22:17:36.041Z,2.70
2019-01-05T22:20:24.093Z,2.70
2019-01-05T22:23:31.495Z,2.69
2019-01-05T22:26:19.424Z,2.69
2019-01-05T22:29:26.457Z,2.63
2019-01-05T22:32:14.611Z,2.57
2019-01-05T22:35:02.510Z,2.53
2019-01-05T22:37:50.445Z,2.51
2019-01-05T22:40:38.451Z,2.47
2019-01-05T22:43:45.439Z,2.44
2019-01-05T22:46:52.485Z,2.41
2019-01-05T22:49:40.362Z,2.36
2019-01-05T22:52:47.359Z,2.26
2019-01-05T22:55:54.389Z,2.21
2019-01-05T22:59:01.524Z,2.15
2019-01-05T23:02:08.524Z,2.12
2019-01-05T23:05:15.913Z,2.11
2019-01-05T23:08:04.205Z,2.12
2019-01-05T23:10:52.226Z,2.12
2019-01-05T23:14:00.854Z,2.09
2019-01-05T23:16:48.726Z,2.06
2019-01-05T23:19:55.715Z,2.05
2019-01-05T23:23:02.788Z,2.03
2019-01-05T23:25:50.676Z,2.02
2019-01-05T23:28:38.970Z,2.00
2019-01-05T23:31:45.957Z,1.97
2019-01-05T23:34:52.979Z,1.95
2019-01-05T23:38:00.058Z,1.91
2019-01-05T23:41:05.305Z,1.88
2019-01-05T23:44:12.348Z,1.86
2019-01-05T23:47:00.248Z,1.81
2019-01-05T23:50:07.282Z,1.77
2019-01-05T23:52:55.257Z,1.75
2019-01-05T23:56:02.298Z,1.73
2019-01-05T23:58:50.185Z,1.73
